Vernalis, California
Current Conditions -  °F | °C
As of 11:53 PM on Sunday 21 Dec 2014 (Local Time) from KMOD Reporting Station
Clear Clear  
Wind Chill: 56°   Ceiling: Unl
Heat Index: 56°   Visibility: 7mi
Dew Point: 54°   Wind: 9mph
Humidity: 93%   Direction: 310°NW
Pressure: 30.24"   Gusts: NA
Location:  37.61°N, 121.26°W
Report Text: KMOD 220753Z AUTO 31008KT 7SM CLR 13/12 A3024 RMK AO2 SLP242 T01330122 401830117
Loading
Personal Weather Stations






























Interactive Weather Map New forecast layout! Learn more

10-Day Weather Forecast

Advertisements
Track Severe Weather on mobile